createdAt,value
2018-06-01T00:00:59.714Z,33.75
2018-06-01T00:02:04.038Z,28.87
2018-06-01T00:08:29.769Z,46.13
2018-06-01T00:12:13.040Z,333.27
2018-06-01T00:13:17.611Z,40.67
2018-06-01T00:14:21.884Z,25.50
2018-06-01T00:15:27.152Z,27.87
2018-06-01T00:16:32.451Z,24.00
2018-06-01T00:17:36.867Z,29.97
2018-06-01T00:18:41.258Z,27.50
2018-06-01T00:19:46.305Z,26.30
2018-06-01T00:20:50.980Z,61.77
2018-06-01T00:21:55.431Z,30.37
2018-06-01T00:22:59.824Z,165.80
2018-06-01T00:24:04.452Z,47.40
2018-06-01T00:25:08.423Z,52.77
2018-06-01T00:26:12.727Z,42.43
2018-06-01T00:27:16.996Z,37.30
2018-06-01T00:28:22.055Z,39.07
2018-06-01T00:29:27.505Z,34.53
2018-06-01T00:30:32.562Z,40.03
2018-06-01T00:31:36.828Z,38.73
2018-06-01T00:32:42.180Z,40.70
2018-06-01T00:33:47.240Z,37.20
2018-06-01T00:34:51.472Z,36.30
2018-06-01T00:35:55.826Z,38.10
2018-06-01T00:37:00.063Z,34.43
2018-06-01T00:38:04.361Z,53.77
2018-06-01T00:39:08.621Z,69.30
2018-06-01T00:40:13.007Z,58.17
2018-06-01T00:41:18.071Z,38.73
2018-06-01T00:42:22.621Z,33.33
2018-06-01T00:43:27.063Z,38.80
2018-06-01T00:44:32.073Z,40.97
2018-06-01T00:45:37.092Z,59.40
2018-06-01T00:46:42.234Z,33.73
2018-06-01T00:47:47.437Z,133.20
2018-06-01T00:48:52.113Z,40.87
2018-06-01T00:49:56.876Z,59.90
2018-06-01T00:51:01.339Z,43.90
2018-06-01T00:52:06.356Z,387.63
2018-06-01T00:53:11.981Z,57.83
2018-06-01T00:54:16.423Z,58.10
2018-06-01T00:55:26.879Z,45.70
2018-06-01T00:56:31.571Z,59.13
2018-06-01T00:57:37.693Z,42.53
2018-06-01T00:58:42.249Z,45.37
2018-06-01T00:59:46.974Z,49.00
2018-06-01T01:00:51.366Z,44.63
2018-06-01T01:01:56.529Z,52.70
2018-06-01T01:03:01.673Z,44.80
2018-06-01T01:04:06.415Z,46.60
2018-06-01T01:05:11.060Z,45.90
2018-06-01T01:06:15.568Z,41.93
2018-06-01T01:07:19.915Z,41.73
2018-06-01T01:08:24.292Z,44.17
2018-06-01T01:09:29.065Z,49.03
2018-06-01T01:10:34.455Z,41.30
2018-06-01T01:11:38.845Z,51.40
2018-06-01T01:12:43.526Z,59.93
2018-06-01T01:13:47.902Z,41.10
2018-06-01T01:14:52.259Z,52.63
2018-06-01T01:15:56.853Z,59.83
2018-06-01T01:17:01.936Z,50.10
2018-06-01T01:18:06.310Z,46.63
2018-06-01T01:19:10.709Z,44.10
2018-06-01T01:20:15.452Z,43.63
2018-06-01T01:21:20.439Z,41.30
2018-06-01T01:22:25.982Z,50.23
2018-06-01T01:23:30.449Z,58.07
2018-06-01T01:24:35.991Z,64.93
2018-06-01T01:25:43.770Z,57.47
2018-06-01T01:26:48.603Z,47.60
2018-06-01T01:27:54.041Z,41.67
2018-06-01T01:28:58.470Z,50.60
2018-06-01T01:30:03.595Z,62.17
2018-06-01T01:31:08.773Z,72.00
2018-06-01T01:32:13.265Z,47.67
2018-06-01T01:33:17.717Z,52.67
2018-06-01T01:34:22.591Z,57.20
2018-06-01T01:35:27.790Z,41.30
2018-06-01T01:36:34.236Z,62.10
2018-06-01T01:37:40.514Z,48.37
2018-06-01T01:38:46.222Z,54.03
2018-06-01T01:39:50.603Z,50.93
2018-06-01T01:40:59.614Z,47.70
2018-06-01T01:42:04.287Z,50.03
2018-06-01T01:43:08.668Z,52.30
2018-06-01T01:44:13.371Z,50.70
2018-06-01T01:45:18.266Z,45.10
2018-06-01T01:46:22.713Z,38.43
2018-06-01T01:47:27.169Z,47.40
2018-06-01T01:48:31.594Z,52.33
2018-06-01T01:49:36.377Z,49.40
2018-06-01T01:50:41.516Z,51.33
2018-06-01T01:51:45.880Z,44.80
2018-06-01T01:52:50.247Z,48.47
2018-06-01T01:53:54.613Z,47.60
2018-06-01T01:54:59.743Z,49.27
2018-06-01T01:56:06.800Z,51.93
2018-06-01T01:57:12.160Z,47.17
2018-06-01T01:58:18.073Z,60.97
2018-06-01T01:59:22.489Z,55.40
2018-06-01T02:00:27.708Z,58.07
2018-06-01T02:01:32.432Z,51.87
2018-06-01T02:02:36.873Z,54.67
2018-06-01T02:03:41.337Z,60.40
2018-06-01T02:04:45.737Z,59.23
2018-06-01T02:05:50.129Z,57.30
2018-06-01T02:06:54.864Z,59.27
2018-06-01T02:07:59.293Z,59.60
2018-06-01T02:09:04.342Z,57.50
2018-06-01T02:10:09.484Z,63.03
2018-06-01T02:11:13.938Z,52.97
2018-06-01T02:12:18.419Z,58.33
2018-06-01T02:13:22.807Z,59.47
2018-06-01T02:14:27.206Z,66.27
2018-06-01T02:15:33.449Z,64.67
2018-06-01T02:16:38.810Z,76.03
2018-06-01T02:17:43.345Z,84.97
2018-06-01T02:18:48.033Z,66.67
2018-06-01T02:19:52.373Z,58.30
2018-06-01T02:20:56.803Z,58.30
2018-06-01T02:22:01.801Z,69.73
2018-06-01T02:23:06.197Z,61.07
2018-06-01T02:24:10.634Z,59.30
2018-06-01T02:25:15.273Z,63.93
2018-06-01T02:26:19.892Z,57.40
2018-06-01T02:27:24.340Z,57.27
2018-06-01T02:28:28.720Z,67.53
2018-06-01T02:29:33.841Z,58.53
2018-06-01T02:30:40.006Z,56.90
2018-06-01T02:31:44.791Z,49.30
2018-06-01T02:32:49.873Z,54.80
2018-06-01T02:33:54.335Z,49.63
2018-06-01T02:34:59.081Z,62.33
2018-06-01T02:36:04.045Z,54.50
2018-06-01T02:37:08.697Z,65.37
2018-06-01T02:38:14.192Z,54.23
2018-06-01T02:39:19.638Z,50.57
2018-06-01T02:40:24.373Z,50.87
2018-06-01T02:41:29.537Z,55.70
2018-06-01T02:42:34.232Z,55.80
2018-06-01T02:43:39.423Z,51.40
2018-06-01T02:44:44.195Z,59.47
2018-06-01T02:45:49.486Z,61.43
2018-06-01T02:46:53.936Z,53.93
2018-06-01T02:47:59.354Z,51.33
2018-06-01T02:49:05.738Z,48.80
2018-06-01T02:50:10.605Z,55.20
2018-06-01T02:51:16.016Z,52.83
2018-06-01T02:52:21.815Z,46.10
2018-06-01T02:53:26.812Z,60.83
2018-06-01T02:54:31.627Z,53.90
2018-06-01T02:55:36.261Z,44.03
2018-06-01T02:56:41.143Z,53.60
2018-06-01T02:57:45.740Z,47.77
2018-06-01T02:58:50.224Z,54.97
2018-06-01T02:59:55.608Z,55.87
2018-06-01T03:01:01.377Z,56.37
2018-06-01T03:02:06.953Z,48.87
2018-06-01T03:03:11.600Z,46.07
2018-06-01T03:04:17.298Z,43.40
2018-06-01T03:05:21.827Z,49.40
2018-06-01T03:06:31.103Z,51.03
2018-06-01T03:07:46.396Z,54.57
2018-06-01T03:08:51.433Z,46.20
2018-06-01T03:09:55.928Z,49.50
2018-06-01T03:11:00.348Z,52.60
2018-06-01T03:12:04.711Z,44.97
2018-06-01T03:13:09.057Z,46.83
2018-06-01T03:14:13.819Z,50.90
2018-06-01T03:15:18.263Z,53.23
2018-06-01T03:16:25.252Z,46.77
2018-06-01T03:17:29.892Z,51.57
2018-06-01T03:18:34.314Z,50.23
2018-06-01T03:19:39.046Z,51.30
2018-06-01T03:20:43.576Z,61.97
2018-06-01T03:21:48.383Z,47.67
2018-06-01T03:22:52.730Z,45.83
2018-06-01T03:23:57.103Z,51.73
2018-06-01T03:25:01.739Z,45.07
2018-06-01T03:26:06.998Z,51.57
2018-06-01T03:27:11.401Z,45.10
2018-06-01T03:28:15.774Z,42.63
2018-06-01T03:29:20.889Z,42.40
2018-06-01T03:30:26.408Z,46.27
2018-06-01T03:31:30.836Z,50.17
2018-06-01T03:32:35.350Z,44.47
2018-06-01T03:33:40.565Z,57.17
2018-06-01T03:34:44.933Z,49.13
2018-06-01T03:35:49.262Z,45.00
2018-06-01T03:36:53.595Z,47.77
2018-06-01T03:37:58.276Z,52.57
2018-06-01T03:39:02.650Z,44.00
2018-06-01T03:40:07.756Z,48.10
2018-06-01T03:41:12.127Z,51.40
2018-06-01T03:42:16.480Z,40.70
2018-06-01T03:43:21.604Z,34.33
2018-06-01T03:44:26.991Z,40.73
2018-06-01T03:45:31.412Z,26.30
2018-06-01T03:46:35.740Z,26.30
2018-06-01T03:47:40.131Z,35.30
2018-06-01T03:48:44.514Z,34.87
2018-06-01T03:49:48.896Z,33.00
2018-06-01T03:50:54.021Z,58.30
2018-06-01T03:51:59.160Z,42.07
2018-06-01T03:53:03.502Z,45.63
2018-06-01T03:54:07.869Z,33.33
2018-06-01T03:55:12.439Z,25.00
2018-06-01T03:56:16.787Z,33.40
2018-06-01T03:57:21.963Z,22.90
2018-06-01T03:58:26.300Z,21.53
2018-06-01T03:59:30.624Z,29.53
2018-06-01T04:00:36.237Z,26.00
2018-06-01T04:01:40.600Z,26.37
2018-06-01T04:02:44.893Z,23.03
2018-06-01T04:03:49.487Z,15.73
2018-06-01T04:04:54.667Z,12.10
2018-06-01T04:05:59.440Z,16.43
2018-06-01T04:07:04.615Z,14.23
2018-06-01T04:08:08.960Z,21.00
2018-06-01T04:09:14.125Z,18.93
2018-06-01T04:10:18.465Z,12.90
2018-06-01T04:11:22.954Z,17.80
2018-06-01T04:12:27.618Z,14.23
2018-06-01T04:13:32.043Z,11.80
2018-06-01T04:14:37.118Z,9.60
2018-06-01T04:15:41.444Z,12.80
2018-06-01T04:16:46.872Z,16.33
2018-06-01T04:17:51.201Z,9.23
2018-06-01T04:18:55.543Z,22.83
2018-06-01T04:19:59.865Z,8.97
2018-06-01T04:21:04.673Z,10.03
2018-06-01T04:22:09.034Z,12.47
2018-06-01T04:23:13.442Z,15.00
2018-06-01T04:24:17.779Z,16.63
2018-06-01T04:25:22.879Z,3.97
2018-06-01T04:26:27.238Z,9.40
2018-06-01T04:27:31.614Z,8.10
2018-06-01T04:28:36.811Z,10.60
2018-06-01T04:29:41.169Z,13.53
2018-06-01T04:30:45.508Z,9.53
2018-06-01T04:31:49.834Z,9.10
2018-06-01T04:32:54.309Z,9.47
2018-06-01T04:33:58.956Z,14.23
2018-06-01T04:35:03.303Z,17.80
2018-06-01T04:36:08.461Z,14.20
2018-06-01T04:37:13.552Z,12.60
2018-06-01T04:38:18.339Z,9.77
2018-06-01T04:39:22.715Z,14.13
2018-06-01T04:40:27.215Z,18.40
2018-06-01T04:41:31.528Z,8.80
2018-06-01T04:42:35.872Z,14.07
2018-06-01T04:43:40.629Z,20.17
2018-06-01T04:44:46.074Z,13.87
2018-06-01T04:45:50.508Z,17.07
2018-06-01T04:46:54.832Z,16.80
2018-06-01T04:47:59.144Z,14.47
2018-06-01T04:49:03.673Z,14.23
2018-06-01T04:50:08.025Z,17.30
2018-06-01T04:51:12.661Z,16.40
2018-06-01T04:52:17.007Z,17.67
2018-06-01T04:53:21.615Z,13.83
2018-06-01T04:54:25.989Z,16.33
2018-06-01T04:55:30.351Z,19.53
2018-06-01T04:56:35.713Z,23.60
2018-06-01T04:57:40.045Z,23.60
2018-06-01T04:58:44.427Z,30.37
2018-06-01T04:59:48.889Z,34.90
2018-06-01T05:00:53.284Z,38.57
2018-06-01T05:01:57.644Z,40.20
2018-06-01T05:03:01.984Z,38.97
2018-06-01T05:04:06.358Z,36.27
2018-06-01T05:05:10.857Z,38.73
2018-06-01T05:06:16.733Z,43.70
2018-06-01T05:07:21.370Z,52.70
2018-06-01T05:08:25.744Z,50.40
2018-06-01T05:09:30.102Z,56.70
2018-06-01T05:10:34.572Z,63.67
2018-06-01T05:11:38.939Z,56.67
2018-06-01T05:12:44.700Z,60.23
2018-06-01T05:13:49.148Z,58.70
2018-06-01T05:14:53.615Z,59.20
2018-06-01T05:15:58.799Z,55.40
2018-06-01T05:17:03.144Z,51.03
2018-06-01T05:18:08.309Z,54.70
2018-06-01T05:19:12.648Z,47.03
2018-06-01T05:20:16.965Z,69.10
2018-06-01T05:21:21.499Z,52.87
2018-06-01T05:22:26.601Z,50.83
2018-06-01T05:23:31.264Z,61.73
2018-06-01T05:24:35.810Z,47.57
2018-06-01T05:25:40.041Z,48.33
2018-06-01T05:26:44.307Z,53.27
2018-06-01T05:27:48.538Z,53.10
2018-06-01T05:28:53.313Z,59.13
2018-06-01T05:29:57.619Z,53.20
2018-06-01T05:31:02.103Z,48.27
2018-06-01T05:32:07.281Z,42.70
2018-06-01T05:33:11.661Z,45.27
2018-06-01T05:34:16.017Z,35.37
2018-06-01T05:35:20.399Z,36.83
2018-06-01T05:36:24.771Z,34.50
2018-06-01T05:37:32.306Z,36.20
2018-06-01T05:38:36.763Z,32.67
2018-06-01T05:39:41.893Z,38.73
2018-06-01T05:40:51.341Z,38.23
2018-06-01T05:41:55.936Z,46.37
2018-06-01T05:43:01.207Z,44.83
2018-06-01T05:44:05.594Z,52.50
2018-06-01T05:45:09.918Z,47.23
2018-06-01T05:46:14.308Z,52.77
2018-06-01T05:47:18.708Z,61.23
2018-06-01T05:48:23.074Z,55.87
2018-06-01T05:49:27.435Z,64.10
2018-06-01T05:50:31.785Z,65.17
2018-06-01T05:51:36.156Z,59.70
2018-06-01T05:52:40.678Z,51.73
2018-06-01T05:53:45.031Z,66.30
2018-06-01T05:54:49.540Z,61.20
2018-06-01T05:55:53.925Z,67.77
2018-06-01T05:56:58.248Z,70.07
2018-06-01T05:58:02.882Z,64.03
2018-06-01T05:59:08.024Z,79.47
2018-06-01T06:00:12.691Z,81.73
2018-06-01T06:01:17.060Z,87.37
2018-06-01T06:02:21.750Z,96.13
2018-06-01T06:03:26.939Z,109.83
2018-06-01T06:04:31.452Z,115.80
2018-06-01T06:05:35.823Z,116.63
2018-06-01T06:06:40.242Z,113.07
2018-06-01T06:07:44.614Z,110.80
2018-06-01T06:08:49.726Z,111.80
2018-06-01T06:09:54.289Z,115.03
2018-06-01T06:10:58.748Z,113.07
2018-06-01T06:12:03.134Z,125.20
2018-06-01T06:13:07.551Z,121.57
2018-06-01T06:14:11.993Z,130.63
2018-06-01T06:15:17.510Z,118.60
2018-06-01T06:16:21.929Z,130.23
2018-06-01T06:17:27.059Z,115.40
2018-06-01T06:18:32.239Z,117.10
2018-06-01T06:19:36.663Z,119.03
2018-06-01T06:20:41.790Z,113.70
2018-06-01T06:21:46.472Z,124.63
2018-06-01T06:22:50.896Z,119.30
2018-06-01T06:23:55.298Z,141.40
2018-06-01T06:24:59.669Z,124.07
2018-06-01T06:26:06.195Z,128.83
2018-06-01T06:27:14.573Z,124.10
2018-06-01T06:28:19.974Z,139.63
2018-06-01T06:29:25.464Z,121.30
2018-06-01T06:30:29.966Z,126.00
2018-06-01T06:31:35.163Z,134.93
2018-06-01T06:32:39.799Z,112.80
2018-06-01T06:33:44.255Z,112.97
2018-06-01T06:34:49.413Z,101.47
2018-06-01T06:35:53.911Z,109.03
2018-06-01T06:36:59.061Z,114.40
2018-06-01T06:38:03.649Z,108.37
2018-06-01T06:39:09.452Z,107.70
2018-06-01T06:40:14.372Z,115.03
2018-06-01T06:41:18.918Z,113.63
2018-06-01T06:42:24.516Z,110.50
2018-06-01T06:43:28.923Z,96.73
2018-06-01T06:44:33.378Z,97.37
2018-06-01T06:45:38.000Z,105.30
2018-06-01T06:46:43.171Z,110.33
2018-06-01T06:47:47.556Z,112.43
2018-06-01T06:48:51.994Z,105.20
2018-06-01T06:49:56.381Z,102.77
2018-06-01T06:51:00.812Z,105.30
2018-06-01T06:52:05.314Z,106.43
2018-06-01T06:53:10.558Z,91.77
2018-06-01T06:54:14.939Z,105.40
2018-06-01T06:55:19.293Z,91.17
2018-06-01T06:56:24.662Z,93.97
2018-06-01T06:57:29.260Z,102.67
2018-06-01T06:58:33.888Z,95.97
2018-06-01T06:59:38.650Z,96.55
2018-06-01T07:00:43.209Z,93.93
2018-06-01T07:01:48.489Z,92.47
2018-06-01T07:02:52.902Z,94.32
2018-06-01T07:03:57.310Z,83.12
2018-06-01T07:05:01.698Z,73.93
2018-06-01T07:06:06.946Z,79.40
2018-06-01T07:07:11.365Z,75.27
2018-06-01T07:08:15.945Z,82.63
2018-06-01T07:09:20.302Z,73.90
2018-06-01T07:10:24.976Z,75.00
2018-06-01T07:11:29.634Z,65.83
2018-06-01T07:12:34.962Z,77.93
2018-06-01T07:13:51.538Z,67.77
2018-06-01T07:14:56.013Z,66.87
2018-06-01T07:16:00.839Z,79.53
2018-06-01T07:17:05.218Z,68.07
2018-06-01T07:18:10.378Z,71.63
2018-06-01T07:19:15.026Z,66.20
2018-06-01T07:20:21.005Z,64.67
2018-06-01T07:21:35.722Z,80.63
2018-06-01T07:22:40.108Z,73.53
2018-06-01T07:26:49.467Z,82.30
2018-06-01T07:30:53.572Z,85.93
2018-06-01T07:31:58.520Z,73.67
2018-06-01T07:33:02.923Z,75.73
2018-06-01T07:37:22.302Z,63.30
2018-06-01T07:38:26.781Z,75.07
2018-06-01T07:39:31.218Z,65.03
2018-06-01T07:40:36.530Z,71.00
2018-06-01T07:41:41.145Z,63.27
2018-06-01T07:42:45.915Z,78.40
2018-06-01T07:43:51.139Z,62.37
2018-06-01T07:46:06.802Z,67.63
2018-06-01T07:47:11.287Z,73.73
2018-06-01T07:48:16.548Z,71.60
2018-06-01T07:49:31.501Z,65.97
2018-06-01T07:50:36.749Z,61.70
2018-06-01T07:51:41.904Z,69.97
2018-06-01T07:55:04.842Z,77.00
2018-06-01T07:57:13.030Z,76.87
2018-06-01T07:58:18.160Z,64.37
2018-06-01T08:02:28.057Z,64.87
2018-06-01T08:03:32.509Z,70.45
2018-06-01T08:04:47.963Z,61.83
2018-06-01T08:05:52.341Z,61.60
2018-06-01T08:06:56.754Z,62.10
2018-06-01T08:08:01.167Z,63.83
2018-06-01T08:09:06.702Z,57.77
2018-06-01T08:10:11.114Z,52.90
2018-06-01T08:11:16.592Z,56.80
2018-06-01T08:12:31.265Z,57.27
2018-06-01T08:13:36.445Z,60.43
2018-06-01T08:14:40.959Z,64.27
2018-06-01T08:15:45.773Z,59.63
2018-06-01T08:16:50.415Z,63.37
2018-06-01T08:17:54.821Z,54.40
2018-06-01T08:18:59.986Z,61.43
2018-06-01T08:20:04.542Z,63.43
2018-06-01T08:21:08.940Z,63.00
2018-06-01T08:22:13.618Z,55.60
2018-06-01T08:23:18.023Z,68.93
2018-06-01T08:24:22.480Z,67.40
2018-06-01T08:25:26.895Z,76.23
2018-06-01T08:26:31.277Z,71.20
2018-06-01T08:27:35.986Z,66.60
2018-06-01T08:28:40.403Z,75.70
2018-06-01T08:29:45.693Z,75.00
2018-06-01T08:30:50.931Z,74.20
2018-06-01T08:31:55.347Z,65.37
2018-06-01T08:32:59.960Z,71.77
2018-06-01T08:34:04.424Z,82.87
2018-06-01T08:35:08.837Z,72.63
2018-06-01T08:36:13.306Z,51.87
2018-06-01T08:37:17.705Z,74.10
2018-06-01T08:38:22.475Z,69.83
2018-06-01T08:39:26.996Z,56.30
2018-06-01T08:40:31.560Z,50.43
2018-06-01T08:41:35.994Z,50.63
2018-06-01T08:42:43.400Z,51.37
2018-06-01T08:43:47.775Z,51.80
2018-06-01T08:44:52.183Z,48.17
2018-06-01T08:45:57.987Z,50.50
2018-06-01T08:47:02.792Z,38.07
2018-06-01T08:48:08.009Z,44.63
2018-06-01T08:49:13.461Z,39.93
2018-06-01T08:50:18.609Z,39.83
2018-06-01T08:51:23.017Z,51.07
2018-06-01T08:52:27.452Z,39.45
2018-06-01T08:53:31.997Z,36.17
2018-06-01T08:54:36.686Z,39.80
2018-06-01T08:55:41.396Z,37.80
2018-06-01T08:56:46.081Z,44.70
2018-06-01T08:57:50.715Z,35.70
2018-06-01T08:58:55.406Z,35.50
2018-06-01T08:59:59.892Z,41.97
2018-06-01T09:01:04.321Z,37.73
2018-06-01T09:02:09.497Z,38.27
2018-06-01T09:03:13.880Z,42.33
2018-06-01T09:04:18.350Z,43.80
2018-06-01T09:05:23.560Z,36.63
2018-06-01T09:06:28.515Z,40.50
2018-06-01T09:07:33.837Z,47.00
2018-06-01T09:08:39.348Z,42.20
2018-06-01T09:09:44.843Z,40.00
2018-06-01T09:10:49.495Z,36.70
2018-06-01T09:11:54.719Z,38.23
2018-06-01T09:12:59.881Z,39.00
2018-06-01T09:14:05.088Z,36.37
2018-06-01T09:15:09.799Z,38.00
2018-06-01T09:16:14.181Z,33.13
2018-06-01T09:17:18.587Z,42.87
2018-06-01T09:18:23.043Z,44.33
2018-06-01T09:19:27.877Z,42.47
2018-06-01T09:20:34.053Z,46.80
2018-06-01T09:21:38.436Z,50.90
2018-06-01T09:22:43.707Z,44.57
2018-06-01T09:23:48.251Z,49.20
2018-06-01T09:24:53.115Z,51.60
2018-06-01T09:25:57.640Z,50.40
2018-06-01T09:27:02.044Z,44.67
2018-06-01T09:28:06.696Z,43.70
2018-06-01T09:29:11.900Z,51.60
2018-06-01T09:30:16.479Z,40.57
2018-06-01T09:31:21.890Z,42.13
2018-06-01T09:32:27.337Z,48.10
2018-06-01T09:33:32.451Z,56.50
2018-06-01T09:34:37.968Z,53.77
2018-06-01T09:35:42.553Z,30.80
2018-06-01T09:36:47.211Z,35.20
2018-06-01T09:37:52.775Z,36.73
2018-06-01T09:38:57.368Z,38.97
2018-06-01T09:40:02.061Z,32.63
2018-06-01T09:41:07.173Z,32.90
2018-06-01T09:42:11.762Z,33.90
2018-06-01T09:43:16.355Z,32.60
2018-06-01T09:44:21.551Z,26.53
2018-06-01T09:45:26.013Z,25.20
2018-06-01T09:46:30.249Z,29.87
2018-06-01T09:47:34.768Z,43.03
2018-06-01T09:48:39.510Z,26.13
2018-06-01T09:49:44.808Z,24.47
2018-06-01T09:50:49.243Z,23.43
2018-06-01T09:51:53.918Z,21.53
2018-06-01T09:52:59.091Z,28.47
2018-06-01T09:54:04.479Z,27.43
2018-06-01T09:55:08.840Z,23.97
2018-06-01T09:56:15.092Z,26.83
2018-06-01T09:57:20.797Z,26.00
2018-06-01T09:58:25.737Z,34.43
2018-06-01T09:59:30.192Z,27.60
2018-06-01T10:00:38.846Z,26.87
2018-06-01T10:01:44.004Z,30.40
2018-06-01T10:02:49.565Z,32.00
2018-06-01T10:03:54.137Z,25.03
2018-06-01T10:04:59.481Z,25.70
2018-06-01T10:06:04.947Z,29.27
2018-06-01T10:07:09.526Z,27.03
2018-06-01T10:08:15.303Z,36.40
2018-06-01T10:09:24.000Z,27.37
2018-06-01T10:10:32.632Z,33.70
2018-06-01T10:11:37.097Z,25.67
2018-06-01T10:12:42.321Z,23.60
2018-06-01T10:13:47.498Z,23.27
2018-06-01T10:14:51.915Z,25.73
2018-06-01T10:15:56.503Z,22.47
2018-06-01T10:17:01.283Z,21.87
2018-06-01T10:18:05.840Z,26.23
2018-06-01T10:19:10.610Z,29.00
2018-06-01T10:20:15.204Z,22.87
2018-06-01T10:21:19.633Z,30.97
2018-06-01T10:22:24.061Z,35.20
2018-06-01T10:23:29.228Z,30.27
2018-06-01T10:24:33.931Z,32.13
2018-06-01T10:25:38.369Z,31.13
2018-06-01T10:26:42.975Z,35.77
2018-06-01T10:27:47.464Z,30.27
2018-06-01T10:28:51.874Z,37.00
2018-06-01T10:29:56.513Z,33.57
2018-06-01T10:31:00.889Z,34.37
2018-06-01T10:32:05.417Z,34.03
2018-06-01T10:33:09.793Z,36.90
2018-06-01T10:34:14.961Z,38.60
2018-06-01T10:35:19.825Z,37.53
2018-06-01T10:36:24.319Z,36.07
2018-06-01T10:37:28.728Z,37.70
2018-06-01T10:38:33.237Z,33.90
2018-06-01T10:39:37.742Z,29.80
2018-06-01T10:40:42.645Z,28.13
2018-06-01T10:41:47.231Z,32.80
2018-06-01T10:42:51.666Z,28.57
2018-06-01T10:43:56.124Z,28.00
2018-06-01T10:45:00.553Z,34.10
2018-06-01T10:46:05.246Z,40.13
2018-06-01T10:47:10.429Z,41.77
2018-06-01T10:48:14.827Z,29.90
2018-06-01T10:49:19.225Z,34.80
2018-06-01T10:50:26.384Z,32.13
2018-06-01T10:51:32.181Z,27.33
2018-06-01T10:52:36.689Z,31.20
2018-06-01T10:53:43.947Z,24.80
2018-06-01T10:54:48.343Z,30.50
2018-06-01T10:55:52.747Z,29.43
2018-06-01T10:56:57.512Z,28.33
2018-06-01T10:58:02.676Z,35.93
2018-06-01T10:59:07.946Z,45.10
2018-06-01T11:00:12.381Z,36.60
2018-06-01T11:01:17.708Z,36.90
2018-06-01T11:02:22.098Z,38.17
2018-06-01T11:03:26.643Z,44.10
2018-06-01T11:04:31.166Z,44.20
2018-06-01T11:05:35.647Z,42.40
2018-06-01T11:06:40.421Z,37.70
2018-06-01T11:07:44.887Z,36.93
2018-06-01T11:08:49.249Z,43.40
2018-06-01T11:09:53.636Z,39.00
2018-06-01T11:10:58.809Z,38.10
2018-06-01T11:12:17.735Z,36.80
2018-06-01T11:13:22.118Z,37.37
2018-06-01T11:14:27.501Z,35.80
2018-06-01T11:15:31.975Z,41.50
2018-06-01T11:16:36.697Z,30.23
2018-06-01T11:17:41.096Z,35.70
2018-06-01T11:18:46.309Z,33.90
2018-06-01T11:19:51.011Z,30.63
2018-06-01T11:20:55.476Z,31.40
2018-06-01T11:21:59.858Z,27.23
2018-06-01T11:23:04.488Z,28.53
2018-06-01T11:24:08.949Z,19.43
2018-06-01T11:25:13.616Z,20.73
2018-06-01T11:26:18.020Z,14.23
2018-06-01T11:27:22.426Z,16.73
2018-06-01T11:28:26.953Z,17.40
2018-06-01T11:29:31.513Z,16.13
2018-06-01T11:30:35.931Z,12.00
2018-06-01T11:31:40.571Z,17.50
2018-06-01T11:32:45.743Z,22.07
2018-06-01T11:33:50.141Z,21.93
2018-06-01T11:34:54.556Z,20.57
2018-06-01T11:36:00.012Z,23.17
2018-06-01T11:37:04.416Z,17.73
2018-06-01T11:38:08.801Z,22.33
2018-06-01T11:39:13.223Z,16.80
2018-06-01T11:40:17.618Z,27.53
2018-06-01T11:41:22.293Z,14.83
2018-06-01T11:42:27.464Z,12.90
2018-06-01T11:43:31.963Z,22.90
2018-06-01T11:44:36.700Z,10.73
2018-06-01T11:45:41.147Z,11.87
2018-06-01T11:46:45.534Z,9.90
2018-06-01T11:47:49.940Z,11.53
2018-06-01T11:48:55.532Z,6.60
2018-06-01T11:49:59.977Z,10.27
2018-06-01T11:51:04.388Z,7.53
2018-06-01T11:52:08.756Z,5.73
2018-06-01T11:53:13.625Z,8.43
2018-06-01T11:54:18.044Z,6.23
2018-06-01T11:55:22.489Z,5.30
2018-06-01T11:56:26.908Z,5.60
2018-06-01T11:57:32.100Z,8.70
2018-06-01T11:58:37.269Z,5.60
2018-06-01T11:59:41.663Z,5.23
2018-06-01T12:00:46.082Z,4.57
2018-06-01T12:01:50.454Z,5.33
2018-06-01T12:02:54.838Z,6.13
2018-06-01T12:04:00.323Z,6.60
2018-06-01T12:05:05.511Z,8.33
2018-06-01T12:06:10.700Z,11.33
2018-06-01T12:07:15.081Z,7.77
2018-06-01T12:08:20.231Z,11.60
2018-06-01T12:09:24.852Z,18.40
2018-06-01T12:10:29.236Z,21.93
2018-06-01T12:11:34.378Z,15.70
2018-06-01T12:12:38.745Z,25.77
2018-06-01T12:13:43.095Z,23.93
2018-06-01T12:14:47.796Z,18.73
2018-06-01T12:15:52.969Z,18.80
2018-06-01T12:16:57.376Z,21.40
2018-06-01T12:18:01.774Z,25.13
2018-06-01T12:19:06.315Z,34.93
2018-06-01T12:20:10.717Z,21.40
2018-06-01T12:21:15.208Z,19.43
2018-06-01T12:22:19.581Z,27.50
2018-06-01T12:23:24.718Z,31.23
2018-06-01T12:24:29.085Z,22.20
2018-06-01T12:25:33.713Z,18.40
2018-06-01T12:26:38.856Z,17.73
2018-06-01T12:27:44.284Z,19.07
2018-06-01T12:28:49.458Z,17.20
2018-06-01T12:29:53.752Z,24.13
2018-06-01T12:30:58.043Z,12.63
2018-06-01T12:32:02.301Z,12.83
2018-06-01T12:33:06.705Z,9.13
2018-06-01T12:34:11.060Z,9.33
2018-06-01T12:35:15.560Z,8.63
2018-06-01T12:36:20.731Z,9.50
2018-06-01T12:37:25.181Z,6.53
2018-06-01T12:38:29.580Z,5.40
2018-06-01T12:39:33.964Z,6.97
2018-06-01T12:40:38.388Z,5.87
2018-06-01T12:41:43.103Z,4.37
2018-06-01T12:42:47.569Z,5.00
2018-06-01T12:43:52.028Z,4.27
2018-06-01T12:44:56.802Z,6.93
2018-06-01T12:46:02.021Z,11.60
2018-06-01T12:47:06.842Z,7.37
2018-06-01T12:48:11.263Z,4.67
2018-06-01T12:49:15.808Z,13.90
2018-06-01T12:50:20.207Z,55.40
2018-06-01T12:51:24.630Z,10.07
2018-06-01T12:52:29.142Z,10.93
2018-06-01T12:53:33.630Z,4.27
2018-06-01T12:54:38.023Z,7.43
2018-06-01T12:55:42.440Z,4.20
2018-06-01T12:56:46.841Z,7.73
2018-06-01T12:57:51.277Z,11.90
2018-06-01T12:58:55.629Z,6.67
2018-06-01T13:00:00.792Z,13.23
2018-06-01T13:01:05.210Z,10.80
2018-06-01T13:02:09.955Z,11.80
2018-06-01T13:03:14.382Z,16.87
2018-06-01T13:04:18.925Z,9.17
2018-06-01T13:05:23.334Z,17.53
2018-06-01T13:06:28.495Z,18.90
2018-06-01T13:07:32.933Z,12.53
2018-06-01T13:08:37.304Z,15.00
2018-06-01T13:09:41.700Z,27.37
2018-06-01T13:10:46.145Z,15.30
2018-06-01T13:11:50.707Z,8.97
2018-06-01T13:12:55.844Z,6.93
2018-06-01T13:14:00.506Z,11.43
2018-06-01T13:15:05.155Z,10.93
2018-06-01T13:16:10.304Z,61.53
2018-06-01T13:17:14.792Z,14.27
2018-06-01T13:18:20.212Z,8.17
2018-06-01T13:19:24.955Z,6.20
2018-06-01T13:20:30.175Z,7.40
2018-06-01T13:21:34.588Z,8.23
2018-06-01T13:22:39.751Z,5.57
2018-06-01T13:23:44.192Z,8.70
2018-06-01T13:24:48.620Z,6.00
2018-06-01T13:25:53.805Z,8.80
2018-06-01T13:26:58.258Z,11.50
2018-06-01T13:28:03.418Z,6.50
2018-06-01T13:29:08.321Z,8.53
2018-06-01T13:30:14.492Z,7.27
2018-06-01T13:31:19.195Z,8.23
2018-06-01T13:32:23.599Z,10.87
2018-06-01T13:33:29.177Z,10.23
2018-06-01T13:34:36.517Z,9.53
2018-06-01T13:35:40.912Z,14.60
2018-06-01T13:36:46.045Z,9.23
2018-06-01T13:37:51.228Z,7.37
2018-06-01T13:38:55.663Z,12.63
2018-06-01T13:40:00.048Z,9.70
2018-06-01T13:41:04.504Z,7.90
2018-06-01T13:42:10.216Z,9.50
2018-06-01T13:43:14.644Z,8.30
2018-06-01T13:44:19.793Z,9.23
2018-06-01T13:45:25.063Z,10.17
2018-06-01T13:46:30.515Z,12.00
2018-06-01T13:47:36.258Z,15.03
2018-06-01T13:48:40.825Z,9.27
2018-06-01T13:49:45.290Z,7.80
2018-06-01T13:50:49.709Z,7.67
2018-06-01T13:51:54.918Z,12.90
2018-06-01T13:52:59.335Z,8.87
2018-06-01T13:54:03.740Z,8.17
2018-06-01T13:55:08.107Z,8.60
2018-06-01T13:56:12.539Z,8.70
2018-06-01T13:57:16.899Z,11.00
2018-06-01T13:58:21.604Z,11.73
2018-06-01T13:59:26.800Z,9.10
2018-06-01T14:00:31.316Z,10.43
2018-06-01T14:01:36.545Z,14.83
2018-06-01T14:02:40.968Z,17.03
2018-06-01T14:03:45.830Z,9.80
2018-06-01T14:04:50.212Z,11.27
2018-06-01T14:05:54.785Z,24.63
2018-06-01T14:06:59.162Z,20.23
2018-06-01T14:08:03.653Z,18.27
2018-06-01T14:09:09.568Z,11.60
2018-06-01T14:10:13.956Z,36.90
2018-06-01T14:11:18.421Z,23.03
2018-06-01T14:12:22.873Z,19.27
2018-06-01T14:13:27.354Z,39.13
2018-06-01T14:14:31.797Z,19.10
2018-06-01T14:15:36.249Z,15.07
2018-06-01T14:16:41.601Z,18.53
2018-06-01T14:17:46.058Z,13.10
2018-06-01T14:18:50.612Z,12.73
2018-06-01T14:19:55.465Z,17.00
2018-06-01T14:20:59.920Z,15.07
2018-06-01T14:22:04.460Z,24.63